sensor_id;sensor_type;location;lat;lon;timestamp;P1;durP1;ratioP1;P2;durP2;ratioP2
58918;SDS011;44704;50.122;19.932;2023-01-29T00:02:07;11.00;;;5.20;;
58918;SDS011;44704;50.122;19.932;2023-01-29T00:04:35;12.90;;;5.80;;
58918;SDS011;44704;50.122;19.932;2023-01-29T00:07:01;10.40;;;5.40;;
58918;SDS011;44704;50.122;19.932;2023-01-29T00:09:28;10.00;;;5.30;;
58918;SDS011;44704;50.122;19.932;2023-01-29T00:11:56;11.00;;;6.00;;
58918;SDS011;44704;50.122;19.932;2023-01-29T00:14:23;10.90;;;5.60;;
58918;SDS011;44704;50.122;19.932;2023-01-29T00:16:52;9.80;;;6.10;;
58918;SDS011;44704;50.122;19.932;2023-01-29T00:19:19;10.90;;;6.10;;
58918;SDS011;44704;50.122;19.932;2023-01-29T00:21:46;11.50;;;5.90;;
58918;SDS011;44704;50.122;19.932;2023-01-29T00:24:13;11.70;;;6.20;;
58918;SDS011;44704;50.122;19.932;2023-01-29T00:26:40;12.20;;;6.50;;
58918;SDS011;44704;50.122;19.932;2023-01-29T00:29:08;12.60;;;6.60;;
58918;SDS011;44704;50.122;19.932;2023-01-29T00:31:35;13.00;;;6.30;;
58918;SDS011;44704;50.122;19.932;2023-01-29T00:34:02;12.40;;;6.70;;
58918;SDS011;44704;50.122;19.932;2023-01-29T00:36:29;18.00;;;7.70;;
58918;SDS011;44704;50.122;19.932;2023-01-29T00:38:56;12.80;;;7.30;;
58918;SDS011;44704;50.122;19.932;2023-01-29T00:41:25;13.60;;;7.60;;
58918;SDS011;44704;50.122;19.932;2023-01-29T00:44:12;13.90;;;7.40;;
58918;SDS011;44704;50.122;19.932;2023-01-29T00:46:57;18.60;;;8.70;;
58918;SDS011;44704;50.122;19.932;2023-01-29T00:49:24;14.40;;;7.60;;
58918;SDS011;44704;50.122;19.932;2023-01-29T00:51:51;15.30;;;7.90;;
58918;SDS011;44704;50.122;19.932;2023-01-29T00:54:37;13.60;;;7.40;;
58918;SDS011;44704;50.122;19.932;2023-01-29T00:57:04;13.00;;;6.90;;
58918;SDS011;44704;50.122;19.932;2023-01-29T00:59:31;15.70;;;7.80;;
58918;SDS011;44704;50.122;19.932;2023-01-29T01:01:58;16.40;;;7.90;;
58918;SDS011;44704;50.122;19.932;2023-01-29T01:04:44;14.00;;;7.10;;
58918;SDS011;44704;50.122;19.932;2023-01-29T01:07:11;15.70;;;8.20;;
58918;SDS011;44704;50.122;19.932;2023-01-29T01:09:38;14.50;;;6.50;;
58918;SDS011;44704;50.122;19.932;2023-01-29T01:12:23;16.10;;;8.20;;
58918;SDS011;44704;50.122;19.932;2023-01-29T01:14:50;14.60;;;7.10;;
58918;SDS011;44704;50.122;19.932;2023-01-29T01:17:17;13.30;;;7.00;;
58918;SDS011;44704;50.122;19.932;2023-01-29T01:19:44;15.20;;;7.60;;
58918;SDS011;44704;50.122;19.932;2023-01-29T01:22:11;14.60;;;8.40;;
58918;SDS011;44704;50.122;19.932;2023-01-29T01:24:38;15.90;;;8.00;;
58918;SDS011;44704;50.122;19.932;2023-01-29T01:27:05;15.40;;;8.40;;
58918;SDS011;44704;50.122;19.932;2023-01-29T01:29:33;14.80;;;8.00;;
58918;SDS011;44704;50.122;19.932;2023-01-29T01:32:00;17.20;;;9.40;;
58918;SDS011;44704;50.122;19.932;2023-01-29T01:34:27;12.30;;;7.10;;
58918;SDS011;44704;50.122;19.932;2023-01-29T01:36:55;13.20;;;7.30;;
58918;SDS011;44704;50.122;19.932;2023-01-29T01:39:22;14.00;;;7.00;;
58918;SDS011;44704;50.122;19.932;2023-01-29T01:41:51;13.50;;;6.20;;
58918;SDS011;44704;50.122;19.932;2023-01-29T01:47:23;11.30;;;6.30;;
58918;SDS011;44704;50.122;19.932;2023-01-29T01:49:57;14.30;;;5.70;;
58918;SDS011;44704;50.122;19.932;2023-01-29T01:52:28;10.20;;;5.50;;
58918;SDS011;44704;50.122;19.932;2023-01-29T01:54:57;10.80;;;6.20;;
58918;SDS011;44704;50.122;19.932;2023-01-29T01:57:26;11.80;;;6.20;;
58918;SDS011;44704;50.122;19.932;2023-01-29T02:00:03;12.30;;;6.70;;
58918;SDS011;44704;50.122;19.932;2023-01-29T02:02:42;16.30;;;8.20;;
58918;SDS011;44704;50.122;19.932;2023-01-29T02:05:31;18.60;;;8.80;;
58918;SDS011;44704;50.122;19.932;2023-01-29T02:08:27;16.90;;;7.30;;
58918;SDS011;44704;50.122;19.932;2023-01-29T02:11:24;15.00;;;7.70;;
58918;SDS011;44704;50.122;19.932;2023-01-29T02:13:51;15.10;;;7.60;;
58918;SDS011;44704;50.122;19.932;2023-01-29T02:16:25;13.50;;;7.10;;
58918;SDS011;44704;50.122;19.932;2023-01-29T02:18:51;15.90;;;7.70;;
58918;SDS011;44704;50.122;19.932;2023-01-29T02:21:32;18.30;;;8.60;;
58918;SDS011;44704;50.122;19.932;2023-01-29T02:27:15;17.50;;;9.30;;
58918;SDS011;44704;50.122;19.932;2023-01-29T02:30:05;21.30;;;9.10;;
58918;SDS011;44704;50.122;19.932;2023-01-29T02:32:50;24.40;;;12.80;;
58918;SDS011;44704;50.122;19.932;2023-01-29T02:35:27;20.70;;;9.90;;
58918;SDS011;44704;50.122;19.932;2023-01-29T02:43:08;18.80;;;9.60;;
58918;SDS011;44704;50.122;19.932;2023-01-29T02:48:29;18.80;;;10.50;;
58918;SDS011;44704;50.122;19.932;2023-01-29T02:51:07;19.40;;;9.20;;
58918;SDS011;44704;50.122;19.932;2023-01-29T02:56:33;18.30;;;9.30;;
58918;SDS011;44704;50.122;19.932;2023-01-29T02:59:08;19.40;;;9.50;;
58918;SDS011;44704;50.122;19.932;2023-01-29T03:01:42;22.10;;;10.40;;
58918;SDS011;44704;50.122;19.932;2023-01-29T03:04:15;19.90;;;10.20;;
58918;SDS011;44704;50.122;19.932;2023-01-29T03:06:57;20.60;;;10.30;;
58918;SDS011;44704;50.122;19.932;2023-01-29T03:12:05;20.40;;;9.70;;
58918;SDS011;44704;50.122;19.932;2023-01-29T03:14:45;17.40;;;9.00;;
58918;SDS011;44704;50.122;19.932;2023-01-29T03:17:36;19.30;;;9.70;;
58918;SDS011;44704;50.122;19.932;2023-01-29T03:20:10;19.70;;;9.10;;
58918;SDS011;44704;50.122;19.932;2023-01-29T03:22:43;20.10;;;8.20;;
58918;SDS011;44704;50.122;19.932;2023-01-29T03:25:16;16.70;;;9.10;;
58918;SDS011;44704;50.122;19.932;2023-01-29T03:28:05;18.40;;;9.20;;
58918;SDS011;44704;50.122;19.932;2023-01-29T03:30:56;14.10;;;7.90;;
58918;SDS011;44704;50.122;19.932;2023-01-29T03:37:06;15.90;;;8.10;;
58918;SDS011;44704;50.122;19.932;2023-01-29T03:39:44;14.90;;;7.90;;
58918;SDS011;44704;50.122;19.932;2023-01-29T03:47:47;16.80;;;8.60;;
58918;SDS011;44704;50.122;19.932;2023-01-29T03:54:03;13.50;;;8.50;;
58918;SDS011;44704;50.122;19.932;2023-01-29T03:59:46;19.90;;;10.00;;
58918;SDS011;44704;50.122;19.932;2023-01-29T04:05:18;20.20;;;9.80;;
58918;SDS011;44704;50.122;19.932;2023-01-29T04:08:06;21.20;;;10.80;;
58918;SDS011;44704;50.122;19.932;2023-01-29T04:10:38;20.30;;;11.20;;
58918;SDS011;44704;50.122;19.932;2023-01-29T04:13:09;21.20;;;11.80;;
58918;SDS011;44704;50.122;19.932;2023-01-29T04:15:43;18.40;;;10.60;;
58918;SDS011;44704;50.122;19.932;2023-01-29T04:18:14;25.80;;;12.10;;
58918;SDS011;44704;50.122;19.932;2023-01-29T04:21:07;20.60;;;10.50;;
58918;SDS011;44704;50.122;19.932;2023-01-29T04:23:35;21.90;;;11.20;;
58918;SDS011;44704;50.122;19.932;2023-01-29T04:26:12;20.30;;;11.40;;
58918;SDS011;44704;50.122;19.932;2023-01-29T04:28:54;22.40;;;12.30;;
58918;SDS011;44704;50.122;19.932;2023-01-29T04:31:32;23.50;;;11.80;;
58918;SDS011;44704;50.122;19.932;2023-01-29T04:37:10;20.90;;;11.10;;
58918;SDS011;44704;50.122;19.932;2023-01-29T04:40:28;23.30;;;11.20;;
58918;SDS011;44704;50.122;19.932;2023-01-29T04:50:56;22.10;;;11.80;;
58918;SDS011;44704;50.122;19.932;2023-01-29T04:53:43;18.90;;;9.80;;
58918;SDS011;44704;50.122;19.932;2023-01-29T04:56:35;24.10;;;10.60;;
58918;SDS011;44704;50.122;19.932;2023-01-29T04:59:13;18.80;;;9.80;;
58918;SDS011;44704;50.122;19.932;2023-01-29T05:01:47;17.00;;;8.90;;
58918;SDS011;44704;50.122;19.932;2023-01-29T05:04:15;16.50;;;9.20;;
58918;SDS011;44704;50.122;19.932;2023-01-29T05:06:45;19.10;;;8.90;;
58918;SDS011;44704;50.122;19.932;2023-01-29T05:09:14;13.90;;;8.50;;
58918;SDS011;44704;50.122;19.932;2023-01-29T05:11:43;15.50;;;8.90;;
58918;SDS011;44704;50.122;19.932;2023-01-29T05:16:44;15.30;;;7.30;;
58918;SDS011;44704;50.122;19.932;2023-01-29T05:19:16;13.40;;;8.60;;
58918;SDS011;44704;50.122;19.932;2023-01-29T05:21:46;12.50;;;7.50;;
58918;SDS011;44704;50.122;19.932;2023-01-29T05:24:16;14.40;;;8.70;;
58918;SDS011;44704;50.122;19.932;2023-01-29T05:26:46;17.20;;;9.40;;
58918;SDS011;44704;50.122;19.932;2023-01-29T05:29:33;14.60;;;8.30;;
58918;SDS011;44704;50.122;19.932;2023-01-29T05:32:00;16.90;;;9.10;;
58918;SDS011;44704;50.122;19.932;2023-01-29T05:34:26;16.50;;;9.50;;
58918;SDS011;44704;50.122;19.932;2023-01-29T05:36:53;18.20;;;8.70;;
58918;SDS011;44704;50.122;19.932;2023-01-29T05:39:20;14.50;;;9.50;;
58918;SDS011;44704;50.122;19.932;2023-01-29T05:41:47;14.30;;;7.30;;
58918;SDS011;44704;50.122;19.932;2023-01-29T05:44:14;17.50;;;9.70;;
58918;SDS011;44704;50.122;19.932;2023-01-29T05:46:41;13.00;;;8.20;;
58918;SDS011;44704;50.122;19.932;2023-01-29T05:49:09;13.20;;;7.60;;
58918;SDS011;44704;50.122;19.932;2023-01-29T05:51:36;12.70;;;7.70;;
58918;SDS011;44704;50.122;19.932;2023-01-29T05:54:03;15.70;;;7.90;;
58918;SDS011;44704;50.122;19.932;2023-01-29T05:56:30;15.70;;;8.10;;
58918;SDS011;44704;50.122;19.932;2023-01-29T05:58:57;14.90;;;8.10;;
58918;SDS011;44704;50.122;19.932;2023-01-29T06:01:24;17.70;;;9.00;;
58918;SDS011;44704;50.122;19.932;2023-01-29T06:03:51;13.50;;;7.00;;
58918;SDS011;44704;50.122;19.932;2023-01-29T06:06:18;12.10;;;6.70;;
58918;SDS011;44704;50.122;19.932;2023-01-29T06:08:45;12.70;;;7.20;;
58918;SDS011;44704;50.122;19.932;2023-01-29T06:11:13;11.40;;;6.80;;
58918;SDS011;44704;50.122;19.932;2023-01-29T06:13:41;11.20;;;6.80;;
58918;SDS011;44704;50.122;19.932;2023-01-29T06:16:09;12.00;;;6.90;;
58918;SDS011;44704;50.122;19.932;2023-01-29T06:18:38;10.70;;;6.20;;
58918;SDS011;44704;50.122;19.932;2023-01-29T06:21:07;9.80;;;6.30;;
58918;SDS011;44704;50.122;19.932;2023-01-29T06:23:37;10.20;;;5.90;;
58918;SDS011;44704;50.122;19.932;2023-01-29T06:26:05;11.80;;;6.80;;
58918;SDS011;44704;50.122;19.932;2023-01-29T06:28:34;10.40;;;6.30;;
58918;SDS011;44704;50.122;19.932;2023-01-29T06:31:01;12.70;;;6.60;;
58918;SDS011;44704;50.122;19.932;2023-01-29T06:33:30;8.50;;;5.90;;
58918;SDS011;44704;50.122;19.932;2023-01-29T06:35:57;10.50;;;5.80;;
58918;SDS011;44704;50.122;19.932;2023-01-29T06:38:25;10.20;;;6.00;;
58918;SDS011;44704;50.122;19.932;2023-01-29T06:40:53;12.30;;;6.40;;
58918;SDS011;44704;50.122;19.932;2023-01-29T06:43:20;10.60;;;6.70;;
58918;SDS011;44704;50.122;19.932;2023-01-29T06:45:49;12.20;;;5.90;;
58918;SDS011;44704;50.122;19.932;2023-01-29T06:48:18;10.30;;;6.40;;
58918;SDS011;44704;50.122;19.932;2023-01-29T06:50:45;11.00;;;6.40;;
58918;SDS011;44704;50.122;19.932;2023-01-29T06:53:12;8.90;;;5.40;;
58918;SDS011;44704;50.122;19.932;2023-01-29T06:55:39;11.30;;;6.50;;
58918;SDS011;44704;50.122;19.932;2023-01-29T06:58:07;7.90;;;5.10;;
58918;SDS011;44704;50.122;19.932;2023-01-29T07:03:02;9.50;;;5.40;;
58918;SDS011;44704;50.122;19.932;2023-01-29T07:05:30;10.60;;;5.70;;
58918;SDS011;44704;50.122;19.932;2023-01-29T07:07:57;8.70;;;5.70;;
58918;SDS011;44704;50.122;19.932;2023-01-29T07:10:24;11.40;;;6.40;;
58918;SDS011;44704;50.122;19.932;2023-01-29T07:12:50;8.50;;;5.50;;
58918;SDS011;44704;50.122;19.932;2023-01-29T07:15:17;6.70;;;4.70;;
58918;SDS011;44704;50.122;19.932;2023-01-29T07:17:56;5.20;;;3.20;;
58918;SDS011;44704;50.122;19.932;2023-01-29T07:20:28;6.90;;;3.60;;
58918;SDS011;44704;50.122;19.932;2023-01-29T07:22:56;3.50;;;2.60;;
58918;SDS011;44704;50.122;19.932;2023-01-29T07:25:23;6.50;;;3.80;;
58918;SDS011;44704;50.122;19.932;2023-01-29T07:27:51;7.00;;;3.90;;
58918;SDS011;44704;50.122;19.932;2023-01-29T07:30:18;8.80;;;4.20;;
58918;SDS011;44704;50.122;19.932;2023-01-29T07:32:45;8.30;;;4.80;;
58918;SDS011;44704;50.122;19.932;2023-01-29T07:35:11;10.30;;;5.30;;
58918;SDS011;44704;50.122;19.932;2023-01-29T07:37:38;6.70;;;3.80;;
58918;SDS011;44704;50.122;19.932;2023-01-29T07:40:05;8.90;;;5.00;;
58918;SDS011;44704;50.122;19.932;2023-01-29T07:42:37;9.20;;;5.10;;
58918;SDS011;44704;50.122;19.932;2023-01-29T07:45:05;8.30;;;5.00;;
58918;SDS011;44704;50.122;19.932;2023-01-29T07:47:33;10.10;;;5.70;;
58918;SDS011;44704;50.122;19.932;2023-01-29T07:50:00;8.50;;;5.10;;
58918;SDS011;44704;50.122;19.932;2023-01-29T07:52:31;8.40;;;4.50;;
58918;SDS011;44704;50.122;19.932;2023-01-29T07:54:59;7.90;;;4.70;;
58918;SDS011;44704;50.122;19.932;2023-01-29T07:57:25;10.60;;;5.40;;
58918;SDS011;44704;50.122;19.932;2023-01-29T07:59:52;8.00;;;5.00;;
58918;SDS011;44704;50.122;19.932;2023-01-29T08:02:19;7.00;;;5.00;;
58918;SDS011;44704;50.122;19.932;2023-01-29T08:04:46;9.50;;;5.50;;
58918;SDS011;44704;50.122;19.932;2023-01-29T08:07:13;10.50;;;5.80;;
58918;SDS011;44704;50.122;19.932;2023-01-29T08:09:40;8.70;;;5.80;;
58918;SDS011;44704;50.122;19.932;2023-01-29T08:12:07;7.10;;;4.50;;
58918;SDS011;44704;50.122;19.932;2023-01-29T08:14:34;9.60;;;5.40;;
58918;SDS011;44704;50.122;19.932;2023-01-29T08:17:00;7.70;;;5.10;;
58918;SDS011;44704;50.122;19.932;2023-01-29T08:19:27;6.80;;;4.60;;
58918;SDS011;44704;50.122;19.932;2023-01-29T08:21:54;7.10;;;4.60;;
58918;SDS011;44704;50.122;19.932;2023-01-29T08:24:21;7.60;;;5.20;;
58918;SDS011;44704;50.122;19.932;2023-01-29T08:26:48;7.20;;;4.90;;
58918;SDS011;44704;50.122;19.932;2023-01-29T08:29:15;7.40;;;4.10;;
58918;SDS011;44704;50.122;19.932;2023-01-29T08:31:42;8.80;;;4.90;;
58918;SDS011;44704;50.122;19.932;2023-01-29T08:34:09;8.20;;;4.60;;
58918;SDS011;44704;50.122;19.932;2023-01-29T08:36:36;9.70;;;5.20;;
58918;SDS011;44704;50.122;19.932;2023-01-29T08:39:03;9.70;;;5.40;;
58918;SDS011;44704;50.122;19.932;2023-01-29T08:41:30;8.90;;;5.80;;
58918;SDS011;44704;50.122;19.932;2023-01-29T08:43:57;13.50;;;6.30;;
58918;SDS011;44704;50.122;19.932;2023-01-29T08:46:26;16.20;;;7.70;;
58918;SDS011;44704;50.122;19.932;2023-01-29T08:48:53;12.20;;;6.70;;
58918;SDS011;44704;50.122;19.932;2023-01-29T08:51:20;11.10;;;6.10;;
58918;SDS011;44704;50.122;19.932;2023-01-29T08:53:48;9.30;;;5.50;;
58918;SDS011;44704;50.122;19.932;2023-01-29T08:56:15;11.20;;;5.50;;
58918;SDS011;44704;50.122;19.932;2023-01-29T08:58:42;11.30;;;5.40;;
58918;SDS011;44704;50.122;19.932;2023-01-29T09:01:09;8.70;;;5.20;;
58918;SDS011;44704;50.122;19.932;2023-01-29T09:03:38;11.10;;;5.30;;
58918;SDS011;44704;50.122;19.932;2023-01-29T09:06:07;12.40;;;6.40;;
58918;SDS011;44704;50.122;19.932;2023-01-29T09:08:36;11.20;;;6.50;;
58918;SDS011;44704;50.122;19.932;2023-01-29T09:11:03;12.50;;;6.50;;
58918;SDS011;44704;50.122;19.932;2023-01-29T09:13:30;9.90;;;5.50;;
58918;SDS011;44704;50.122;19.932;2023-01-29T09:16:00;11.70;;;6.00;;
58918;SDS011;44704;50.122;19.932;2023-01-29T09:18:28;11.40;;;5.70;;
58918;SDS011;44704;50.122;19.932;2023-01-29T09:20:56;9.80;;;5.80;;
58918;SDS011;44704;50.122;19.932;2023-01-29T09:23:23;9.30;;;5.40;;
58918;SDS011;44704;50.122;19.932;2023-01-29T09:25:50;10.80;;;6.10;;
58918;SDS011;44704;50.122;19.932;2023-01-29T09:28:17;12.00;;;6.50;;
58918;SDS011;44704;50.122;19.932;2023-01-29T09:30:44;12.80;;;6.70;;
58918;SDS011;44704;50.122;19.932;2023-01-29T09:33:11;11.60;;;6.00;;
58918;SDS011;44704;50.122;19.932;2023-01-29T09:35:41;10.60;;;5.80;;
58918;SDS011;44704;50.122;19.932;2023-01-29T09:38:09;9.30;;;5.90;;
58918;SDS011;44704;50.122;19.932;2023-01-29T09:43:13;8.70;;;5.40;;
58918;SDS011;44704;50.122;19.932;2023-01-29T09:46:05;13.00;;;7.40;;
58918;SDS011;44704;50.122;19.932;2023-01-29T09:51:03;11.50;;;6.70;;
58918;SDS011;44704;50.122;19.932;2023-01-29T09:56:13;11.60;;;6.80;;
58918;SDS011;44704;50.122;19.932;2023-01-29T09:58:45;12.00;;;7.20;;
58918;SDS011;44704;50.122;19.932;2023-01-29T10:14:33;11.60;;;7.70;;
58918;SDS011;44704;50.122;19.932;2023-01-29T10:19:55;16.60;;;9.10;;
58918;SDS011;44704;50.122;19.932;2023-01-29T10:25:15;16.50;;;9.00;;
58918;SDS011;44704;50.122;19.932;2023-01-29T10:27:48;15.30;;;8.70;;
58918;SDS011;44704;50.122;19.932;2023-01-29T10:30:24;18.30;;;10.50;;
58918;SDS011;44704;50.122;19.932;2023-01-29T10:33:08;17.40;;;9.90;;
58918;SDS011;44704;50.122;19.932;2023-01-29T10:35:43;18.10;;;9.10;;
58918;SDS011;44704;50.122;19.932;2023-01-29T10:38:26;13.40;;;8.50;;
58918;SDS011;44704;50.122;19.932;2023-01-29T10:41:05;15.40;;;9.00;;
58918;SDS011;44704;50.122;19.932;2023-01-29T10:46:59;14.60;;;9.40;;
58918;SDS011;44704;50.122;19.932;2023-01-29T10:51:33;29.20;;;15.20;;
58918;SDS011;44704;50.122;19.932;2023-01-29T10:54:13;21.00;;;12.60;;
58918;SDS011;44704;50.122;19.932;2023-01-29T11:01:58;17.30;;;10.20;;
58918;SDS011;44704;50.122;19.932;2023-01-29T11:04:26;14.60;;;9.40;;
58918;SDS011;44704;50.122;19.932;2023-01-29T11:06:54;17.80;;;11.10;;
58918;SDS011;44704;50.122;19.932;2023-01-29T11:12:28;31.40;;;17.00;;
58918;SDS011;44704;50.122;19.932;2023-01-29T11:17:30;67.70;;;37.00;;
58918;SDS011;44704;50.122;19.932;2023-01-29T11:19:57;94.40;;;51.50;;
58918;SDS011;44704;50.122;19.932;2023-01-29T11:22:25;46.20;;;25.90;;
58918;SDS011;44704;50.122;19.932;2023-01-29T11:27:45;23.60;;;13.40;;
58918;SDS011;44704;50.122;19.932;2023-01-29T11:30:36;22.80;;;12.60;;
58918;SDS011;44704;50.122;19.932;2023-01-29T11:35:49;20.60;;;11.90;;
58918;SDS011;44704;50.122;19.932;2023-01-29T11:38:25;19.10;;;10.70;;
58918;SDS011;44704;50.122;19.932;2023-01-29T11:41:03;21.30;;;11.10;;
58918;SDS011;44704;50.122;19.932;2023-01-29T11:43:32;19.70;;;11.50;;
58918;SDS011;44704;50.122;19.932;2023-01-29T11:46:00;16.20;;;10.50;;
58918;SDS011;44704;50.122;19.932;2023-01-29T11:51:20;13.90;;;8.60;;
58918;SDS011;44704;50.122;19.932;2023-01-29T11:53:52;15.40;;;10.70;;
58918;SDS011;44704;50.122;19.932;2023-01-29T11:56:21;16.30;;;9.90;;
58918;SDS011;44704;50.122;19.932;2023-01-29T11:58:54;18.30;;;10.20;;
58918;SDS011;44704;50.122;19.932;2023-01-29T12:01:34;16.00;;;9.80;;
58918;SDS011;44704;50.122;19.932;2023-01-29T12:04:16;13.50;;;8.40;;
58918;SDS011;44704;50.122;19.932;2023-01-29T12:06:46;16.60;;;10.10;;
58918;SDS011;44704;50.122;19.932;2023-01-29T12:09:18;14.40;;;8.60;;
58918;SDS011;44704;50.122;19.932;2023-01-29T12:11:52;15.70;;;8.20;;
58918;SDS011;44704;50.122;19.932;2023-01-29T12:14:25;13.30;;;8.40;;
58918;SDS011;44704;50.122;19.932;2023-01-29T12:16:58;14.80;;;8.40;;
58918;SDS011;44704;50.122;19.932;2023-01-29T12:19:39;17.10;;;9.30;;
58918;SDS011;44704;50.122;19.932;2023-01-29T12:33:45;17.90;;;10.80;;
58918;SDS011;44704;50.122;19.932;2023-01-29T12:36:46;23.00;;;10.70;;
58918;SDS011;44704;50.122;19.932;2023-01-29T12:39:21;12.30;;;8.40;;
58918;SDS011;44704;50.122;19.932;2023-01-29T12:44:29;16.80;;;9.50;;
58918;SDS011;44704;50.122;19.932;2023-01-29T12:46:59;16.60;;;9.50;;
58918;SDS011;44704;50.122;19.932;2023-01-29T12:49:29;19.20;;;9.90;;
58918;SDS011;44704;50.122;19.932;2023-01-29T12:52:06;18.80;;;9.90;;
58918;SDS011;44704;50.122;19.932;2023-01-29T12:54:41;14.20;;;9.20;;
58918;SDS011;44704;50.122;19.932;2023-01-29T12:58:00;13.90;;;8.60;;
58918;SDS011;44704;50.122;19.932;2023-01-29T13:08:22;17.50;;;10.40;;
58918;SDS011;44704;50.122;19.932;2023-01-29T13:10:53;16.80;;;8.40;;
58918;SDS011;44704;50.122;19.932;2023-01-29T13:16:11;12.90;;;8.00;;
58918;SDS011;44704;50.122;19.932;2023-01-29T13:21:12;16.30;;;9.50;;
58918;SDS011;44704;50.122;19.932;2023-01-29T13:23:42;15.60;;;8.30;;
58918;SDS011;44704;50.122;19.932;2023-01-29T13:26:16;15.40;;;8.60;;
58918;SDS011;44704;50.122;19.932;2023-01-29T13:28:47;20.80;;;9.30;;
58918;SDS011;44704;50.122;19.932;2023-01-29T13:36:46;19.00;;;9.40;;
58918;SDS011;44704;50.122;19.932;2023-01-29T13:39:34;14.50;;;7.80;;
58918;SDS011;44704;50.122;19.932;2023-01-29T13:44:54;13.60;;;7.90;;
58918;SDS011;44704;50.122;19.932;2023-01-29T13:47:26;13.80;;;8.40;;
58918;SDS011;44704;50.122;19.932;2023-01-29T13:49:56;14.30;;;9.20;;
58918;SDS011;44704;50.122;19.932;2023-01-29T13:55:03;15.90;;;8.80;;
58918;SDS011;44704;50.122;19.932;2023-01-29T14:00:56;15.90;;;8.90;;
58918;SDS011;44704;50.122;19.932;2023-01-29T14:07:58;12.60;;;7.90;;
58918;SDS011;44704;50.122;19.932;2023-01-29T14:10:27;16.90;;;9.20;;
58918;SDS011;44704;50.122;19.932;2023-01-29T14:15:29;19.60;;;9.10;;
58918;SDS011;44704;50.122;19.932;2023-01-29T14:18:01;18.90;;;10.30;;
58918;SDS011;44704;50.122;19.932;2023-01-29T14:20:36;20.70;;;10.10;;
58918;SDS011;44704;50.122;19.932;2023-01-29T14:23:06;23.50;;;11.50;;
58918;SDS011;44704;50.122;19.932;2023-01-29T14:25:45;16.90;;;9.50;;
58918;SDS011;44704;50.122;19.932;2023-01-29T14:28:14;23.20;;;10.00;;
58918;SDS011;44704;50.122;19.932;2023-01-29T14:30:46;17.90;;;9.50;;
58918;SDS011;44704;50.122;19.932;2023-01-29T14:33:22;19.40;;;9.70;;
58918;SDS011;44704;50.122;19.932;2023-01-29T14:35:53;24.90;;;11.00;;
58918;SDS011;44704;50.122;19.932;2023-01-29T14:38:22;18.00;;;10.30;;
58918;SDS011;44704;50.122;19.932;2023-01-29T14:41:01;15.40;;;8.40;;
58918;SDS011;44704;50.122;19.932;2023-01-29T14:43:31;19.30;;;9.70;;
58918;SDS011;44704;50.122;19.932;2023-01-29T14:46:40;22.60;;;10.60;;
58918;SDS011;44704;50.122;19.932;2023-01-29T14:49:00;22.40;;;11.00;;
58918;SDS011;44704;50.122;19.932;2023-01-29T14:51:31;20.70;;;10.40;;
58918;SDS011;44704;50.122;19.932;2023-01-29T14:54:10;21.80;;;10.00;;
58918;SDS011;44704;50.122;19.932;2023-01-29T14:56:55;21.00;;;10.30;;
58918;SDS011;44704;50.122;19.932;2023-01-29T14:59:28;30.00;;;13.00;;
58918;SDS011;44704;50.122;19.932;2023-01-29T15:01:56;22.30;;;10.40;;
58918;SDS011;44704;50.122;19.932;2023-01-29T15:04:30;28.00;;;12.60;;
58918;SDS011;44704;50.122;19.932;2023-01-29T15:09:38;26.60;;;12.80;;
58918;SDS011;44704;50.122;19.932;2023-01-29T15:15:03;25.10;;;11.60;;
58918;SDS011;44704;50.122;19.932;2023-01-29T15:17:45;30.20;;;12.50;;
58918;SDS011;44704;50.122;19.932;2023-01-29T15:20:39;21.50;;;11.80;;
58918;SDS011;44704;50.122;19.932;2023-01-29T15:25:51;23.20;;;11.70;;
58918;SDS011;44704;50.122;19.932;2023-01-29T15:28:21;29.60;;;13.30;;
58918;SDS011;44704;50.122;19.932;2023-01-29T15:30:53;24.60;;;12.50;;
58918;SDS011;44704;50.122;19.932;2023-01-29T15:33:21;25.40;;;11.60;;
58918;SDS011;44704;50.122;19.932;2023-01-29T15:35:48;22.10;;;12.00;;
58918;SDS011;44704;50.122;19.932;2023-01-29T15:38:24;21.50;;;10.90;;
58918;SDS011;44704;50.122;19.932;2023-01-29T15:40:59;22.30;;;11.50;;
58918;SDS011;44704;50.122;19.932;2023-01-29T15:43:28;22.50;;;11.10;;
58918;SDS011;44704;50.122;19.932;2023-01-29T15:48:44;27.10;;;13.00;;
58918;SDS011;44704;50.122;19.932;2023-01-29T15:51:15;20.40;;;10.40;;
58918;SDS011;44704;50.122;19.932;2023-01-29T15:56:36;23.90;;;12.00;;
58918;SDS011;44704;50.122;19.932;2023-01-29T15:59:06;24.60;;;11.80;;
58918;SDS011;44704;50.122;19.932;2023-01-29T16:01:40;22.40;;;11.90;;
58918;SDS011;44704;50.122;19.932;2023-01-29T16:04:10;33.60;;;12.90;;
58918;SDS011;44704;50.122;19.932;2023-01-29T16:06:41;21.30;;;12.20;;
58918;SDS011;44704;50.122;19.932;2023-01-29T16:09:10;25.50;;;12.50;;
58918;SDS011;44704;50.122;19.932;2023-01-29T16:11:44;26.50;;;13.70;;
58918;SDS011;44704;50.122;19.932;2023-01-29T16:14:13;25.70;;;13.00;;
58918;SDS011;44704;50.122;19.932;2023-01-29T16:16:44;27.10;;;14.30;;
58918;SDS011;44704;50.122;19.932;2023-01-29T16:21:50;25.90;;;11.40;;
58918;SDS011;44704;50.122;19.932;2023-01-29T16:24:25;21.70;;;10.10;;
58918;SDS011;44704;50.122;19.932;2023-01-29T16:27:01;25.10;;;10.50;;
58918;SDS011;44704;50.122;19.932;2023-01-29T16:29:39;17.30;;;9.40;;
58918;SDS011;44704;50.122;19.932;2023-01-29T16:32:06;22.10;;;10.60;;
58918;SDS011;44704;50.122;19.932;2023-01-29T16:34:38;18.80;;;9.50;;
58918;SDS011;44704;50.122;19.932;2023-01-29T16:37:17;20.10;;;10.70;;
58918;SDS011;44704;50.122;19.932;2023-01-29T16:39:49;24.20;;;11.00;;
58918;SDS011;44704;50.122;19.932;2023-01-29T16:42:21;26.30;;;12.80;;
58918;SDS011;44704;50.122;19.932;2023-01-29T16:47:36;125.90;;;46.80;;
58918;SDS011;44704;50.122;19.932;2023-01-29T16:53:11;91.60;;;39.30;;
58918;SDS011;44704;50.122;19.932;2023-01-29T16:55:42;45.90;;;23.50;;
58918;SDS011;44704;50.122;19.932;2023-01-29T16:58:15;32.00;;;15.80;;
58918;SDS011;44704;50.122;19.932;2023-01-29T17:00:45;33.10;;;16.80;;
58918;SDS011;44704;50.122;19.932;2023-01-29T17:03:16;43.40;;;20.80;;
58918;SDS011;44704;50.122;19.932;2023-01-29T17:05:44;30.40;;;16.40;;
58918;SDS011;44704;50.122;19.932;2023-01-29T17:08:33;30.50;;;15.50;;
58918;SDS011;44704;50.122;19.932;2023-01-29T17:10:59;35.00;;;17.10;;
58918;SDS011;44704;50.122;19.932;2023-01-29T17:13:29;32.20;;;15.30;;
58918;SDS011;44704;50.122;19.932;2023-01-29T17:18:49;25.60;;;14.50;;
58918;SDS011;44704;50.122;19.932;2023-01-29T17:21:16;31.50;;;16.40;;
58918;SDS011;44704;50.122;19.932;2023-01-29T17:23:43;32.30;;;15.60;;
58918;SDS011;44704;50.122;19.932;2023-01-29T17:26:11;30.90;;;16.10;;
58918;SDS011;44704;50.122;19.932;2023-01-29T17:28:42;34.80;;;14.90;;
58918;SDS011;44704;50.122;19.932;2023-01-29T17:31:10;29.50;;;15.30;;
58918;SDS011;44704;50.122;19.932;2023-01-29T17:33:38;30.10;;;14.90;;
58918;SDS011;44704;50.122;19.932;2023-01-29T17:36:11;31.70;;;15.90;;
58918;SDS011;44704;50.122;19.932;2023-01-29T17:38:40;32.10;;;14.80;;
58918;SDS011;44704;50.122;19.932;2023-01-29T17:41:40;28.90;;;14.40;;
58918;SDS011;44704;50.122;19.932;2023-01-29T17:44:00;28.70;;;14.00;;
58918;SDS011;44704;50.122;19.932;2023-01-29T17:46:27;32.50;;;16.40;;